Time;durP1;ratioP1;P1;durP2;ratioP2;P2;SDS_P1;SDS_P2;PMS_P1;PMS_P2;Temp;Humidity;BMP_temperature;BMP_pressure;BME280_temperature;BME280_humidity;BME280_pressure;Samples;Min_cycle;Max_cycle;Signal;HPM_P1;HPM_P2
2022/11/05 00:10:53;;;;;;;9.18;5.80;;;;;;;6.57;100.00;101345.75;5250407;28;20068;-67
2022/11/05 00:19:06;;;;;;;9.27;6.40;;;;;;;6.47;100.00;101350.69;5247749;28;20043;-68
2022/11/05 00:27:37;;;;;;;10.30;6.35;;;;;;;6.40;100.00;101351.91;5201178;28;20053;-67
2022/11/05 00:30:10;;;;;;;9.27;6.30;;;;;;;6.30;100.00;101355.97;5201055;28;20038;-67
2022/11/05 00:32:42;;;;;;;14.50;7.38;;;;;;;6.20;100.00;101359.09;5227642;28;20600;-67
2022/11/05 00:35:14;;;;;;;9.27;6.97;;;;;;;6.17;100.00;101358.38;5237015;28;20063;-67
2022/11/05 00:37:46;;;;;;;12.70;7.38;;;;;;;6.12;100.00;101369.22;5241460;28;20379;-68
2022/11/05 00:40:17;;;;;;;10.73;7.75;;;;;;;6.10;100.00;101368.44;5249053;28;20029;-67
2022/11/05 00:45:39;;;;;;;11.20;7.00;;;;;;;6.00;100.00;101375.09;5248345;28;20048;-68
2022/11/05 00:51:00;;;;;;;13.18;7.78;;;;;;;5.90;100.00;101387.91;5248023;28;20123;-68
2022/11/05 00:53:32;;;;;;;11.95;8.45;;;;;;;5.88;100.00;101384.47;5243799;28;20040;-67
2022/11/05 00:56:03;;;;;;;10.88;7.47;;;;;;;5.90;100.00;101398.50;5248957;28;20489;-67
2022/11/05 00:58:34;;;;;;;15.50;7.85;;;;;;;5.77;100.00;101398.25;5252432;28;20186;-67
2022/11/05 01:01:06;;;;;;;11.45;7.95;;;;;;;5.71;100.00;101393.22;5238686;28;20029;-67
2022/11/05 01:03:38;;;;;;;12.70;7.57;;;;;;;5.68;100.00;101404.81;5224942;28;20021;-67
2022/11/05 01:06:13;;;;;;;12.32;7.40;;;;;;;5.67;100.00;101396.94;5243415;28;20119;-67
2022/11/05 01:08:45;;;;;;;11.40;7.30;;;;;;;5.66;100.00;101405.81;5248575;28;20037;-68
2022/11/05 01:11:34;;;;;;;11.48;8.05;;;;;;;5.60;100.00;101406.97;5246372;28;20121;-67
2022/11/05 01:14:09;;;;;;;13.10;8.73;;;;;;;5.58;100.00;101406.19;5249348;28;20838;-67
2022/11/05 01:16:41;;;;;;;14.38;9.05;;;;;;;5.62;100.00;101410.41;5252190;28;20411;-67
2022/11/05 01:19:12;;;;;;;14.55;9.48;;;;;;;5.51;100.00;101412.69;5248271;28;20037;-68
2022/11/05 01:21:44;;;;;;;11.32;8.05;;;;;;;5.50;100.00;101429.47;5244891;28;20067;-67
2022/11/05 01:24:15;;;;;;;14.88;9.02;;;;;;;5.49;100.00;101423.34;5242080;28;20131;-68
2022/11/05 01:26:46;;;;;;;13.88;8.32;;;;;;;5.44;100.00;101432.41;5241532;28;20041;-67
2022/11/05 01:29:18;;;;;;;11.85;7.40;;;;;;;5.41;100.00;101435.22;5243947;28;20487;-67
2022/11/05 01:31:49;;;;;;;15.00;8.13;;;;;;;5.41;100.00;101437.88;5246038;28;20037;-67
2022/11/05 01:34:20;;;;;;;11.35;7.65;;;;;;;5.35;100.00;101433.72;5241366;28;20895;-68
2022/11/05 01:36:51;;;;;;;14.32;7.60;;;;;;;5.32;100.00;101439.13;5243176;28;20549;-67
2022/11/05 01:39:23;;;;;;;11.45;7.40;;;;;;;5.33;100.00;101432.91;5244270;28;20032;-68
2022/11/05 01:41:54;;;;;;;9.82;7.65;;;;;;;5.29;100.00;101432.19;5242563;28;20134;-67
2022/11/05 01:44:50;;;;;;;13.00;7.53;;;;;;;5.37;100.00;101436.25;5240659;28;20124;-68
2022/11/05 01:47:40;;;;;;;11.10;7.32;;;;;;;5.32;100.00;101440.91;5241973;28;20035;-67
2022/11/05 01:50:33;;;;;;;14.38;7.70;;;;;;;5.33;100.00;101442.63;5237185;28;20460;-68
2022/11/05 01:53:12;;;;;;;11.80;8.32;;;;;;;5.18;100.00;101445.03;5236616;28;20458;-67
2022/11/05 01:55:50;;;;;;;13.32;6.95;;;;;;;5.09;100.00;101434.88;5241833;28;20431;-67
2022/11/05 01:58:27;;;;;;;12.20;7.35;;;;;;;5.04;100.00;101440.38;5239406;28;20566;-68
2022/11/05 02:00:58;;;;;;;13.65;7.85;;;;;;;5.05;100.00;101433.28;5242860;28;20036;-67
2022/11/05 02:03:30;;;;;;;14.23;8.05;;;;;;;5.06;100.00;101429.69;5241691;28;20090;-68
2022/11/05 02:06:02;;;;;;;12.80;7.60;;;;;;;5.07;100.00;101428.78;5251992;28;20040;-68
2022/11/05 02:08:36;;;;;;;13.88;7.93;;;;;;;4.99;100.00;101422.97;5248807;28;20570;-67
2022/11/05 02:11:10;;;;;;;13.93;8.40;;;;;;;5.09;100.00;101421.63;5250273;28;20384;-67
2022/11/05 02:13:41;;;;;;;17.05;8.43;;;;;;;5.01;100.00;101421.97;5250178;28;20013;-68
2022/11/05 02:16:38;;;;;;;14.50;8.18;;;;;;;5.02;100.00;101422.81;5248859;28;20564;-67
2022/11/05 02:19:28;;;;;;;13.70;8.02;;;;;;;4.86;100.00;101420.00;5244729;28;20028;-67
2022/11/05 02:22:18;;;;;;;13.80;8.27;;;;;;;4.93;100.00;101423.22;5247180;28;20572;-67
2022/11/05 02:24:59;;;;;;;11.80;8.68;;;;;;;4.82;100.00;101418.41;5246721;28;20368;-67
2022/11/05 02:27:59;;;;;;;16.40;9.63;;;;;;;4.85;100.00;101424.44;5248494;28;20025;-68
2022/11/05 02:30:51;;;;;;;16.75;9.73;;;;;;;4.78;100.00;101433.56;5243691;28;20137;-67
2022/11/05 02:33:47;;;;;;;14.32;8.88;;;;;;;4.75;100.00;101423.09;5247815;28;20032;-67
2022/11/05 02:36:45;;;;;;;13.60;9.18;;;;;;;4.79;100.00;101416.75;5240364;28;20047;-68
2022/11/05 02:39:38;;;;;;;16.58;10.32;;;;;;;4.79;100.00;101422.03;5233083;28;20059;-67
2022/11/05 02:42:42;;;;;;;16.38;9.98;;;;;;;4.81;100.00;101422.81;5250422;28;20044;-68
2022/11/05 02:45:16;;;;;;;16.65;10.27;;;;;;;4.66;100.00;101423.47;5241151;28;20573;-68
2022/11/05 02:48:06;;;;;;;15.90;9.85;;;;;;;4.70;100.00;101414.53;5249310;28;20037;-67
2022/11/05 02:51:01;;;;;;;19.58;10.40;;;;;;;4.62;100.00;101425.41;5236759;28;20098;-68
2022/11/05 02:53:52;;;;;;;17.33;10.65;;;;;;;4.61;100.00;101415.75;5247065;28;20044;-68
2022/11/05 02:56:29;;;;;;;17.13;10.85;;;;;;;4.55;100.00;101420.47;5250915;28;20067;-68
2022/11/05 02:59:00;;;;;;;19.35;11.93;;;;;;;4.59;100.00;101420.25;5245665;28;20044;-68
2022/11/05 03:01:34;;;;;;;17.48;10.52;;;;;;;4.45;100.00;101415.56;5237291;28;20036;-68
2022/11/05 03:04:08;;;;;;;18.77;12.13;;;;;;;4.53;100.00;101417.03;5232514;28;20383;-67
2022/11/05 03:06:50;;;;;;;15.60;11.80;;;;;;;4.49;100.00;101413.66;5237223;28;20039;-67
2022/11/05 03:09:39;;;;;;;18.80;11.05;;;;;;;4.41;100.00;101411.31;5239671;28;20039;-67
2022/11/05 03:12:38;;;;;;;20.25;12.05;;;;;;;4.35;100.00;101411.56;5241521;28;20065;-67
2022/11/05 03:15:12;;;;;;;18.35;11.63;;;;;;;4.39;100.00;101409.66;5243468;28;20513;-68
2022/11/05 03:18:08;;;;;;;23.75;12.52;;;;;;;4.36;100.00;101409.81;5253158;28;20052;-67
2022/11/05 03:20:48;;;;;;;19.48;13.00;;;;;;;4.30;100.00;101418.84;5244604;28;20039;-68
2022/11/05 03:23:27;;;;;;;21.25;13.57;;;;;;;4.37;100.00;101408.84;5244291;28;20090;-68
2022/11/05 03:26:09;;;;;;;20.95;13.40;;;;;;;4.29;100.00;101422.38;5248948;28;20100;-67
2022/11/05 03:28:44;;;;;;;20.33;13.70;;;;;;;4.21;100.00;101419.22;5237651;28;20033;-68
2022/11/05 03:31:17;;;;;;;20.77;14.68;;;;;;;4.22;100.00;101418.25;5249381;28;20120;-67
2022/11/05 03:33:52;;;;;;;20.83;14.70;;;;;;;4.23;100.00;101420.00;5244246;28;20025;-68
2022/11/05 03:36:30;;;;;;;;;;;;;;;4.38;100.00;101424.66;5247254;28;20024;-67
2022/11/05 03:39:06;;;;;;;22.80;14.68;;;;;;;4.18;100.00;101421.97;5249943;28;19982;-67
2022/11/05 03:41:42;;;;;;;22.40;16.15;;;;;;;4.19;100.00;101428.97;5249801;28;20033;-68
2022/11/05 03:44:20;;;;;;;22.83;15.20;;;;;;;4.27;100.00;101433.00;5249624;28;20039;-67
2022/11/05 03:46:57;;;;;;;28.38;16.52;;;;;;;4.15;100.00;101424.75;5245266;28;20423;-67
2022/11/05 03:49:35;;;;;;;19.05;14.68;;;;;;;4.17;100.00;101428.19;5245102;28;20090;-67
2022/11/05 03:52:13;;;;;;;27.45;17.10;;;;;;;4.15;100.00;101425.59;5244824;28;20032;-66
2022/11/05 03:54:45;;;;;;;24.00;16.23;;;;;;;4.15;100.00;101425.59;5252620;28;20043;-67
2022/11/05 03:57:21;;;;;;;21.80;16.10;;;;;;;4.12;100.00;101428.34;5250348;28;20483;-68
2022/11/05 03:59:52;;;;;;;24.67;16.30;;;;;;;4.08;100.00;101429.41;5241666;28;20368;-66
2022/11/05 04:02:25;;;;;;;22.38;15.68;;;;;;;4.04;100.00;101430.44;5243912;28;20082;-67
2022/11/05 04:04:57;;;;;;;24.20;17.05;;;;;;;4.07;100.00;101423.25;5246935;28;20119;-66
2022/11/05 04:13:25;;;;;;;27.02;17.92;;;;;;;4.05;100.00;101430.38;5244436;28;20463;-66
2022/11/05 04:18:46;;;;;;;30.15;18.90;;;;;;;4.04;100.00;101435.72;5254050;28;20041;-67
2022/11/05 04:24:07;;;;;;;29.00;18.52;;;;;;;3.97;100.00;101437.75;5245589;28;20041;-68
2022/11/05 04:26:45;;;;;;;31.77;20.75;;;;;;;3.98;100.00;101443.88;5248568;28;20036;-66
2022/11/05 04:32:06;;;;;;;27.98;18.17;;;;;;;3.92;100.00;101453.75;5245717;28;20033;-67
2022/11/05 04:34:37;;;;;;;28.33;19.27;;;;;;;3.91;100.00;101445.91;5244136;28;20033;-67
2022/11/05 04:37:09;;;;;;;28.65;19.40;;;;;;;3.91;100.00;101451.19;5250182;28;20037;-67
2022/11/05 04:39:40;;;;;;;27.00;19.33;;;;;;;3.87;100.00;101445.19;5252506;28;20064;-67
2022/11/05 04:42:11;;;;;;;29.00;19.45;;;;;;;4.03;100.00;101448.06;5245594;28;20025;-67
2022/11/05 04:44:42;;;;;;;29.02;18.67;;;;;;;3.93;100.00;101457.25;5237750;28;20028;-68
2022/11/05 04:47:14;;;;;;;32.08;20.98;;;;;;;3.97;100.00;101447.44;5250736;28;20106;-66
2022/11/05 04:49:45;;;;;;;29.95;19.80;;;;;;;3.96;100.00;101461.56;5250181;28;20025;-67
2022/11/05 04:52:16;;;;;;;28.70;18.60;;;;;;;3.93;100.00;101460.78;5248821;28;20056;-66
2022/11/05 04:54:48;;;;;;;27.38;19.42;;;;;;;3.88;100.00;101451.31;5252844;28;20060;-66
2022/11/05 04:57:19;;;;;;;27.05;18.50;;;;;;;3.93;100.00;101463.41;5246763;28;20041;-67
2022/11/05 04:59:51;;;;;;;31.13;20.08;;;;;;;3.93;100.00;101470.44;5240287;28;20040;-66
2022/11/05 05:02:22;;;;;;;30.40;19.05;;;;;;;3.96;100.00;101475.63;5241933;28;20086;-67
2022/11/05 05:04:53;;;;;;;29.75;19.45;;;;;;;3.93;100.00;101473.97;5248538;28;20086;-66
2022/11/05 05:07:25;;;;;;;30.88;20.35;;;;;;;3.96;100.00;101473.00;5245332;28;20493;-67
2022/11/05 05:09:56;;;;;;;28.83;19.58;;;;;;;3.93;100.00;101473.97;5244929;28;20024;-67
2022/11/05 05:12:28;;;;;;;30.20;19.60;;;;;;;3.98;100.00;101472.94;5246572;28;20028;-66
2022/11/05 05:14:59;;;;;;;33.40;20.50;;;;;;;3.98;100.00;101467.66;5244228;28;20037;-66
2022/11/05 05:17:31;;;;;;;32.05;20.05;;;;;;;3.90;100.00;101467.94;5244741;28;20052;-67
2022/11/05 05:22:53;;;;;;;33.53;19.63;;;;;;;3.93;100.00;101478.38;5239187;28;20041;-67
2022/11/05 05:25:24;;;;;;;26.38;18.65;;;;;;;3.99;100.00;101482.56;5242388;28;20220;-66
2022/11/05 05:27:57;;;;;;;28.17;19.80;;;;;;;3.89;100.00;101477.66;5246858;28;20383;-67
2022/11/05 05:30:28;;;;;;;35.78;20.98;;;;;;;3.95;100.00;101486.25;5251717;28;20024;-66
2022/11/05 05:33:03;;;;;;;32.75;22.23;;;;;;;3.89;100.00;101482.06;5255389;28;20534;-66
2022/11/05 05:35:34;;;;;;;33.38;20.20;;;;;;;3.83;100.00;101488.44;5250577;28;20120;-67
2022/11/05 05:38:05;;;;;;;33.65;21.77;;;;;;;3.81;100.00;101485.00;5249485;28;20366;-66
2022/11/05 05:40:37;;;;;;;28.73;19.08;;;;;;;3.81;100.00;101494.69;5246866;28;20433;-66
2022/11/05 05:43:08;;;;;;;30.45;19.25;;;;;;;3.82;100.00;101496.44;5252752;28;20111;-66
2022/11/05 05:45:39;;;;;;;31.55;21.33;;;;;;;3.88;100.00;101497.03;5253667;28;20041;-66
2022/11/05 05:48:10;;;;;;;28.73;20.80;;;;;;;3.79;100.00;101491.25;5252212;28;20028;-66
2022/11/05 05:50:42;;;;;;;29.83;19.75;;;;;;;3.78;100.00;101500.06;5248417;28;20045;-66
2022/11/05 05:53:13;;;;;;;31.02;19.63;;;;;;;3.87;100.00;101495.34;5250959;28;20045;-66
2022/11/05 05:55:44;;;;;;;28.55;20.42;;;;;;;3.77;100.00;101493.94;5243522;28;20063;-66
2022/11/05 05:58:15;;;;;;;28.90;19.50;;;;;;;3.80;100.00;101490.34;5251980;28;20032;-67
2022/11/05 06:00:47;;;;;;;30.15;20.08;;;;;;;3.73;100.00;101493.19;5246951;28;20562;-67
2022/11/05 06:03:18;;;;;;;26.23;18.52;;;;;;;3.75;100.00;101494.94;5248860;28;20566;-66
2022/11/05 06:05:49;;;;;;;31.45;20.40;;;;;;;3.75;100.00;101492.28;5252121;28;20483;-66
2022/11/05 06:08:21;;;;;;;28.35;18.08;;;;;;;3.76;100.00;101501.91;5249995;28;20033;-66
2022/11/05 06:10:52;;;;;;;29.02;20.05;;;;;;;3.78;100.00;101489.50;5247874;28;20029;-66
2022/11/05 06:13:25;;;;;;;31.60;20.10;;;;;;;3.71;100.00;101488.91;5251339;28;20104;-67
2022/11/05 06:16:01;;;;;;;26.58;18.63;;;;;;;3.70;100.00;101495.97;5247009;28;20040;-66
2022/11/05 06:18:33;;;;;;;31.02;19.30;;;;;;;3.72;100.00;101496.78;5252015;28;20025;-67
2022/11/05 06:21:08;;;;;;;29.50;18.88;;;;;;;3.70;100.00;101497.72;5251633;28;20036;-66
2022/11/05 06:23:41;;;;;;;28.67;18.45;;;;;;;3.67;100.00;101498.72;5245208;28;20048;-67
2022/11/05 06:26:16;;;;;;;31.30;18.20;;;;;;;3.68;100.00;101499.56;5253412;28;20021;-68
2022/11/05 06:28:47;;;;;;;31.15;19.13;;;;;;;3.65;100.00;101503.19;5252146;28;20028;-67
2022/11/05 06:31:18;;;;;;;29.92;18.50;;;;;;;3.66;100.00;101499.66;5252425;28;20102;-68
2022/11/05 06:33:50;;;;;;;28.98;18.88;;;;;;;3.64;100.00;101504.09;5246795;28;20467;-67
2022/11/05 06:36:21;;;;;;;28.65;19.42;;;;;;;3.73;100.00;101506.38;5243458;28;20056;-66
2022/11/05 06:38:52;;;;;;;30.88;18.23;;;;;;;3.65;100.00;101502.34;5242627;28;20075;-67
2022/11/05 06:41:24;;;;;;;26.00;18.20;;;;;;;3.63;100.00;101512.09;5244622;28;20039;-67
2022/11/05 06:43:55;;;;;;;27.95;17.50;;;;;;;3.61;100.00;101506.84;5246815;28;20024;-66
2022/11/05 06:46:26;;;;;;;30.67;19.73;;;;;;;3.60;100.00;101513.03;5241310;28;20025;-67
2022/11/05 06:48:57;;;;;;;32.85;19.05;;;;;;;3.61;100.00;101506.00;5243448;28;20037;-67
2022/11/05 06:51:29;;;;;;;26.55;17.73;;;;;;;3.61;100.00;101511.28;5251157;28;20120;-66
2022/11/05 06:54:00;;;;;;;27.42;17.85;;;;;;;3.58;100.00;101508.75;5251902;28;20056;-66
2022/11/05 06:56:31;;;;;;;26.27;17.50;;;;;;;3.63;100.00;101512.09;5250494;28;20123;-66
2022/11/05 06:59:02;;;;;;;27.98;17.55;;;;;;;3.57;100.00;101507.91;5248190;28;20033;-66
2022/11/05 07:01:34;;;;;;;26.60;17.67;;;;;;;3.56;100.00;101516.72;5247093;28;20425;-66
2022/11/05 07:04:05;;;;;;;25.00;16.75;;;;;;;3.64;100.00;101529.63;5248484;28;20406;-67
2022/11/05 07:06:37;;;;;;;30.27;18.48;;;;;;;3.59;100.00;101534.22;5241762;28;20044;-67
2022/11/05 07:09:08;;;;;;;27.30;18.55;;;;;;;3.67;100.00;101532.16;5243433;28;20036;-67
2022/11/05 07:11:39;;;;;;;22.50;16.33;;;;;;;3.63;100.00;101538.47;5251347;28;20033;-68
2022/11/05 07:14:10;;;;;;;24.92;17.45;;;;;;;3.66;100.00;101530.44;5247512;28;20104;-67
2022/11/05 07:16:42;;;;;;;32.58;19.85;;;;;;;3.73;100.00;101532.78;5243569;28;20555;-67
2022/11/05 07:19:13;;;;;;;27.20;18.23;;;;;;;3.72;100.00;101533.72;5241746;28;20129;-68
2022/11/05 07:21:44;;;;;;;32.25;19.02;;;;;;;3.79;100.00;101539.63;5244359;28;20044;-67
2022/11/05 07:24:16;;;;;;;30.35;19.48;;;;;;;3.84;100.00;101542.09;5243299;28;20060;-66
2022/11/05 07:26:47;;;;;;;29.60;18.70;;;;;;;3.87;100.00;101542.84;5239019;28;20036;-67
2022/11/05 07:29:18;;;;;;;34.25;20.35;;;;;;;3.93;100.00;101545.25;5240305;28;20029;-66
2022/11/05 07:31:50;;;;;;;34.60;21.08;;;;;;;3.97;100.00;101537.19;5244678;28;20492;-66
2022/11/05 07:34:21;;;;;;;31.73;19.13;;;;;;;4.04;100.00;101542.19;5241297;28;20525;-68
2022/11/05 07:36:52;;;;;;;33.47;19.33;;;;;;;3.94;100.00;101546.09;5243555;28;20051;-67
2022/11/05 07:39:24;;;;;;;32.78;20.33;;;;;;;3.97;100.00;101548.66;5240457;28;20036;-67
2022/11/05 07:41:56;;;;;;;28.98;19.30;;;;;;;4.01;100.00;101552.88;5241538;28;20416;-67
2022/11/05 07:44:27;;;;;;;32.28;19.70;;;;;;;4.01;100.00;101558.16;5242221;28;20069;-67
2022/11/05 07:46:59;;;;;;;28.88;19.55;;;;;;;4.07;100.00;101560.56;5242772;28;20147;-68
2022/11/05 07:49:30;;;;;;;33.35;20.33;;;;;;;4.15;100.00;101556.78;5241009;28;20087;-67
2022/11/05 07:52:01;;;;;;;33.63;20.02;;;;;;;4.11;100.00;101556.03;5244124;28;20040;-67
2022/11/05 07:54:32;;;;;;;35.63;20.88;;;;;;;4.17;100.00;101565.50;5250000;28;20094;-68
2022/11/05 07:57:04;;;;;;;32.28;20.35;;;;;;;4.21;100.00;101559.19;5246130;28;20041;-67
2022/11/05 07:59:35;;;;;;;33.42;21.33;;;;;;;4.18;100.00;101562.81;5249546;28;20167;-68
2022/11/05 08:02:09;;;;;;;31.73;20.15;;;;;;;4.20;100.00;101571.53;5242447;28;20282;-68
2022/11/05 08:04:41;;;;;;;34.92;21.20;;;;;;;4.32;100.00;101557.00;5245186;28;20041;-66
2022/11/05 08:07:12;;;;;;;35.58;21.80;;;;;;;4.35;100.00;101561.28;5249034;28;20394;-67
2022/11/05 08:09:43;;;;;;;36.63;21.45;;;;;;;4.32;100.00;101554.34;5243315;28;20060;-68
2022/11/05 08:12:15;;;;;;;34.72;21.52;;;;;;;4.41;100.00;101558.41;5240688;28;20033;-67
2022/11/05 08:14:46;;;;;;;41.10;23.55;;;;;;;4.41;100.00;101558.41;5238849;28;20021;-68
2022/11/05 08:17:17;;;;;;;36.00;21.33;;;;;;;4.42;100.00;101560.13;5238926;28;20122;-67
2022/11/05 08:19:49;;;;;;;37.22;23.15;;;;;;;4.46;100.00;101564.38;5239944;28;20090;-66
2022/11/05 08:22:20;;;;;;;41.13;23.58;;;;;;;4.55;100.00;101557.88;5240602;28;20040;-68
2022/11/05 08:24:52;;;;;;;40.15;23.35;;;;;;;4.54;100.00;101559.63;5246612;28;20078;-68
2022/11/05 08:27:23;;;;;;;40.40;23.45;;;;;;;4.64;100.00;101557.47;5242758;28;20082;-68
2022/11/05 08:29:54;;;;;;;40.72;23.77;;;;;;;4.64;100.00;101554.84;5239109;28;20025;-67
2022/11/05 08:32:25;;;;;;;39.28;23.52;;;;;;;4.72;100.00;101547.47;5244126;28;20341;-67
2022/11/05 08:34:57;;;;;;;38.10;22.67;;;;;;;4.73;100.00;101559.75;5242562;28;20372;-67
2022/11/05 08:37:28;;;;;;;40.13;24.73;;;;;;;4.82;100.00;101566.47;5243663;28;20103;-67
2022/11/05 08:39:59;;;;;;;35.55;23.30;;;;;;;4.95;100.00;101562.41;5244481;28;20033;-67
2022/11/05 08:42:30;;;;;;;43.83;24.42;;;;;;;4.93;100.00;101560.72;5243560;28;20121;-68
2022/11/05 08:45:02;;;;;;;42.95;24.75;;;;;;;4.97;100.00;101562.34;5242883;28;20025;-67
2022/11/05 08:47:33;;;;;;;44.03;24.92;;;;;;;5.01;100.00;101561.28;5241400;28;20025;-66
2022/11/05 08:50:05;;;;;;;44.00;24.85;;;;;;;5.16;100.00;101558.00;5243595;28;20035;-67
2022/11/05 08:52:39;;;;;;;44.10;25.00;;;;;;;5.22;100.00;101565.66;5244581;28;20036;-66
2022/11/05 08:55:10;;;;;;;44.88;25.15;;;;;;;5.24;100.00;101560.31;5245833;28;20035;-66
2022/11/05 08:57:41;;;;;;;46.20;25.02;;;;;;;5.30;100.00;101560.91;5240433;28;20021;-67
2022/11/05 09:00:13;;;;;;;42.30;25.38;;;;;;;5.39;100.00;101562.31;5245300;28;20087;-67
2022/11/05 09:02:45;;;;;;;44.25;25.80;;;;;;;5.44;100.00;101562.09;5246785;28;20040;-66
2022/11/05 09:05:16;;;;;;;38.65;24.55;;;;;;;5.55;100.00;101565.13;5246406;28;20029;-66
2022/11/05 09:07:47;;;;;;;40.70;24.33;;;;;;;5.60;100.00;101564.91;5247273;28;20043;-66
2022/11/05 09:10:19;;;;;;;40.10;24.63;;;;;;;5.60;100.00;101563.16;5225525;28;20041;-67
2022/11/05 09:12:50;;;;;;;38.22;24.88;;;;;;;5.68;100.00;101566.31;5245400;28;20082;-68
2022/11/05 09:15:23;;;;;;;40.08;25.77;;;;;;;5.72;100.00;101566.19;5248438;28;20036;-67
2022/11/05 09:17:54;;;;;;;48.72;25.80;;;;;;;5.77;100.00;101564.16;5251780;28;20033;-67
2022/11/05 09:20:25;;;;;;;39.05;24.92;;;;;;;5.84;100.00;101566.47;5246617;28;20033;-68
2022/11/05 09:22:57;;;;;;;42.03;25.48;;;;;;;5.90;100.00;101557.41;5247109;28;20021;-67
2022/11/05 09:25:28;;;;;;;39.38;24.10;;;;;;;5.97;100.00;101560.66;5247604;28;20021;-67
2022/11/05 09:28:07;;;;;;;36.15;23.42;;;;;;;6.07;100.00;101568.09;5249143;28;20033;-66
2022/11/05 09:30:41;;;;;;;41.28;24.10;;;;;;;6.13;100.00;101568.75;5244251;28;20581;-67
2022/11/05 09:33:13;;;;;;;37.50;23.45;;;;;;;6.25;100.00;101562.88;5246140;28;20487;-66
2022/11/05 09:35:44;;;;;;;37.95;22.85;;;;;;;6.27;100.00;101567.19;5247829;28;20021;-68
2022/11/05 09:38:16;;;;;;;37.42;23.55;;;;;;;6.35;100.00;101573.91;5243811;28;20436;-68
2022/11/05 09:41:08;;;;;;;35.78;22.40;;;;;;;6.44;100.00;101573.47;5240180;28;20037;-68
2022/11/05 09:43:48;;;;;;;32.88;21.15;;;;;;;6.51;100.00;101579.38;5248317;28;20434;-68
2022/11/05 09:46:25;;;;;;;38.05;22.38;;;;;;;6.53;100.00;101569.53;5246090;28;20082;-68
2022/11/05 09:49:03;;;;;;;35.15;21.33;;;;;;;6.57;100.00;101576.41;5247195;28;20044;-68
2022/11/05 09:51:35;;;;;;;30.67;20.80;;;;;;;6.66;100.00;101574.19;5250280;28;20143;-68
2022/11/05 09:54:10;;;;;;;30.63;19.48;;;;;;;6.74;100.00;101572.94;5248633;28;20044;-68
2022/11/05 09:56:42;;;;;;;33.25;20.75;;;;;;;6.78;100.00;101578.03;5249535;28;20040;-68
2022/11/05 09:59:39;;;;;;;28.63;19.80;;;;;;;6.97;100.00;101587.72;5248916;28;20643;-68
2022/11/05 10:02:24;;;;;;;31.02;19.65;;;;;;;7.05;100.00;101588.22;5245205;28;20643;-68
2022/11/05 10:04:57;;;;;;;;;;;;;;;7.21;100.00;101585.63;5244117;28;20037;-67
2022/11/05 10:07:39;;;;;;;29.15;18.55;;;;;;;7.21;100.00;101588.28;5244115;28;20023;-68
2022/11/05 10:10:22;;;;;;;29.92;18.05;;;;;;;7.31;100.00;101601.97;5241521;28;20021;-68
2022/11/05 10:12:58;;;;;;;26.55;17.42;;;;;;;7.44;100.00;101600.38;5246697;28;20029;-68
2022/11/05 10:15:40;;;;;;;24.13;17.40;;;;;;;7.51;100.00;101601.81;5246187;28;20030;-68
2022/11/05 10:18:42;;;;;;;24.13;15.85;;;;;;;7.63;100.00;101610.94;5248204;28;20037;-68
2022/11/05 10:21:16;;;;;;;28.83;17.90;;;;;;;7.72;100.00;101609.59;5248837;28;20051;-67
2022/11/05 10:23:47;;;;;;;24.98;15.35;;;;;;;7.68;100.00;101616.88;5250084;28;20741;-67
2022/11/05 10:26:22;;;;;;;24.50;16.05;;;;;;;7.80;100.00;101612.72;5250234;28;20107;-68
2022/11/05 10:28:54;;;;;;;25.48;15.68;;;;;;;7.89;100.00;101622.00;5251331;28;20039;-68
2022/11/05 10:31:29;;;;;;;19.17;14.02;;;;;;;7.94;100.00;101623.47;5253473;28;20029;-67
2022/11/05 10:34:05;;;;;;;21.48;13.93;;;;;;;7.98;100.00;101624.19;5253232;28;20033;-68
2022/11/05 10:36:37;;;;;;;23.17;14.38;;;;;;;8.10;100.00;101628.81;5246075;28;20060;-67
2022/11/05 10:39:14;;;;;;;19.95;13.73;;;;;;;8.08;100.00;101630.72;5249104;28;20082;-67
2022/11/05 10:41:48;;;;;;;19.23;13.20;;;;;;;8.12;100.00;101628.75;5250952;28;20502;-67
2022/11/05 10:44:22;;;;;;;20.40;13.15;;;;;;;8.17;100.00;101618.72;5254402;28;20033;-67
2022/11/05 10:47:22;;;;;;;22.23;12.80;;;;;;;8.16;100.00;101617.00;5252224;28;20463;-68
2022/11/05 10:49:59;;;;;;;19.77;13.05;;;;;;;8.22;100.00;101612.22;5227119;28;20517;-67
2022/11/05 10:52:34;;;;;;;19.70;12.82;;;;;;;8.28;100.00;101613.69;5251630;28;20059;-67
2022/11/05 10:55:21;;;;;;;20.30;12.85;;;;;;;8.33;100.00;101616.09;5250154;28;20045;-68
2022/11/05 10:57:53;;;;;;;22.05;12.35;;;;;;;8.31;100.00;101604.69;5251883;28;20028;-68
2022/11/05 11:00:27;;;;;;;19.45;12.98;;;;;;;8.35;100.00;101608.91;5249337;28;20395;-69
2022/11/05 11:03:01;;;;;;;19.35;12.85;;;;;;;8.38;100.00;101609.59;5248282;28;20152;-68
2022/11/05 11:05:36;;;;;;;18.88;12.85;;;;;;;8.44;100.00;101609.28;5247586;28;20364;-68
2022/11/05 11:08:11;;;;;;;21.75;12.80;;;;;;;8.46;100.00;101617.19;5234378;28;20469;-67
2022/11/05 11:10:56;;;;;;;19.88;12.52;;;;;;;8.54;100.00;101614.09;5250425;28;20025;-67
2022/11/05 11:13:47;;;;;;;18.52;13.15;;;;;;;8.61;100.00;101611.00;5247941;28;20033;-68
2022/11/05 11:16:23;;;;;;;19.10;12.65;;;;;;;8.58;100.00;101607.66;5255250;28;20037;-67
2022/11/05 11:18:59;;;;;;;19.52;12.93;;;;;;;8.75;100.00;101612.03;5252194;28;20045;-69
2022/11/05 11:21:31;;;;;;;23.50;14.38;;;;;;;8.74;100.00;101608.50;5253693;28;20479;-68
2022/11/05 11:24:08;;;;;;;20.90;12.27;;;;;;;8.74;100.00;101595.19;5251739;28;20044;-68
2022/11/05 11:26:40;;;;;;;20.95;12.20;;;;;;;8.75;100.00;101599.56;5244917;28;20045;-69
2022/11/05 11:29:19;;;;;;;18.40;11.52;;;;;;;8.82;100.00;101595.63;5248740;28;20064;-68
2022/11/05 11:31:54;;;;;;;18.77;11.88;;;;;;;8.84;100.00;101600.88;5240289;28;20079;-68
2022/11/05 11:34:40;;;;;;;19.60;11.55;;;;;;;8.90;100.00;101586.31;5244761;28;20032;-68
2022/11/05 11:37:23;;;;;;;17.65;11.20;;;;;;;9.03;100.00;101592.66;5243416;28;20486;-68
2022/11/05 11:40:01;;;;;;;14.93;10.50;;;;;;;8.94;100.00;101596.72;5244638;28;20037;-68
2022/11/05 11:42:38;;;;;;;18.02;11.07;;;;;;;9.01;100.00;101594.56;5241409;28;20591;-69
2022/11/05 11:45:25;;;;;;;16.48;10.07;;;;;;;9.02;100.00;101596.28;5244944;28;20038;-68
2022/11/05 11:48:01;;;;;;;16.33;9.13;;;;;;;9.01;100.00;101586.56;5242696;28;20067;-68
2022/11/05 11:50:37;;;;;;;15.32;10.23;;;;;;;9.09;100.00;101600.31;5247365;28;20538;-69
2022/11/05 11:53:20;;;;;;;13.25;8.63;;;;;;;9.09;100.00;101597.66;5246490;28;20045;-68
2022/11/05 11:55:59;;;;;;;12.65;8.25;;;;;;;8.99;100.00;101593.78;5246979;28;20037;-68
2022/11/05 11:58:41;;;;;;;12.75;8.15;;;;;;;9.02;100.00;101593.63;5244449;28;20447;-69
2022/11/05 12:01:15;;;;;;;15.63;8.27;;;;;;;8.99;100.00;101591.13;5249205;28;20032;-69
2022/11/05 12:03:52;;;;;;;12.07;7.53;;;;;;;8.99;100.00;101585.81;5240533;28;20076;-69
2022/11/05 12:06:32;;;;;;;14.52;8.70;;;;;;;9.07;100.00;101577.38;5247625;28;20032;-68
2022/11/05 12:09:31;;;;;;;12.73;7.85;;;;;;;9.15;100.00;101583.13;5252281;28;20025;-68
2022/11/05 12:12:14;;;;;;;14.75;8.40;;;;;;;9.30;100.00;101576.00;5245080;28;20082;-68
2022/11/05 12:15:01;;;;;;;14.80;8.20;;;;;;;9.26;100.00;101580.66;5247203;28;20025;-69
2022/11/05 12:17:52;;;;;;;11.98;7.53;;;;;;;9.34;100.00;101586.41;5243469;28;20029;-69
2022/11/05 12:20:54;;;;;;;12.80;7.38;;;;;;;9.40;100.00;101582.53;5243879;28;20406;-69
2022/11/05 12:23:36;;;;;;;12.68;7.03;;;;;;;9.38;100.00;101577.28;5243187;28;20454;-68
2022/11/05 12:26:16;;;;;;;12.68;7.63;;;;;;;9.49;100.00;101581.97;5247467;28;20041;-67
2022/11/05 12:29:06;;;;;;;13.80;7.15;;;;;;;9.44;100.00;101572.56;5242841;28;20032;-68
2022/11/05 12:32:03;;;;;;;13.30;7.63;;;;;;;9.49;100.00;101576.66;5243736;28;20036;-67
2022/11/05 12:35:25;;;;;;;14.02;7.60;;;;;;;9.61;100.00;101569.72;5231354;28;20148;-68